createdAt,value
2023-02-22T00:00:25.027Z,45.88
2023-02-22T00:01:28.644Z,46.53
2023-02-22T00:02:32.788Z,47.75
2023-02-22T00:03:36.541Z,47.07
2023-02-22T00:04:40.639Z,48.65
2023-02-22T00:05:45.425Z,44.13
2023-02-22T00:06:49.745Z,49.08
2023-02-22T00:07:53.432Z,52.83
2023-02-22T00:08:57.558Z,46.67
2023-02-22T00:10:01.227Z,46.72
2023-02-22T00:11:06.978Z,46.88
2023-02-22T00:12:10.555Z,45.05
2023-02-22T00:13:16.250Z,48.08
2023-02-22T00:14:19.977Z,49.47
2023-02-22T00:15:25.458Z,51.38
2023-02-22T00:16:29.084Z,47.00
2023-02-22T00:17:32.712Z,43.17
2023-02-22T00:18:36.506Z,48.67
2023-02-22T00:19:40.083Z,51.53
2023-02-22T00:20:43.720Z,49.72
2023-02-22T00:21:52.195Z,48.53
2023-02-22T00:22:55.973Z,48.08
2023-02-22T00:24:02.055Z,49.58
2023-02-22T00:25:06.130Z,48.20
2023-02-22T00:26:11.391Z,45.78
2023-02-22T00:27:15.092Z,53.13
2023-02-22T00:28:20.569Z,48.78
2023-02-22T00:29:24.834Z,49.83
2023-02-22T00:30:30.347Z,49.10
2023-02-22T00:31:38.767Z,51.05
2023-02-22T00:32:43.744Z,47.90
2023-02-22T00:33:47.734Z,46.40
2023-02-22T00:34:54.140Z,47.42
2023-02-22T00:36:01.508Z,49.07
2023-02-22T00:37:05.224Z,43.70
2023-02-22T00:38:09.232Z,47.50
2023-02-22T00:39:13.021Z,44.03
2023-02-22T00:40:18.558Z,46.85
2023-02-22T00:41:22.253Z,43.23
2023-02-22T00:42:25.860Z,44.92
2023-02-22T00:43:31.163Z,46.38
2023-02-22T00:44:34.738Z,48.53
2023-02-22T00:45:38.905Z,42.22
2023-02-22T00:46:42.500Z,45.27
2023-02-22T00:47:46.354Z,42.78
2023-02-22T00:48:50.011Z,47.08
2023-02-22T00:49:53.753Z,45.55
2023-02-22T00:50:57.460Z,49.25
2023-02-22T00:52:01.058Z,49.47
2023-02-22T00:53:06.158Z,50.15
2023-02-22T00:54:09.925Z,50.88
2023-02-22T00:55:18.476Z,50.83
2023-02-22T00:56:22.370Z,50.65
2023-02-22T00:57:26.681Z,51.27
2023-02-22T00:58:32.108Z,50.92
2023-02-22T00:59:35.782Z,55.30
2023-02-22T01:00:41.552Z,51.25
2023-02-22T01:01:45.634Z,50.67
2023-02-22T01:02:50.039Z,53.33
2023-02-22T01:03:53.723Z,49.33
2023-02-22T01:04:57.734Z,45.35
2023-02-22T01:06:01.412Z,52.10
2023-02-22T01:07:05.119Z,51.22
2023-02-22T01:08:10.850Z,44.83
2023-02-22T01:09:14.427Z,48.58
2023-02-22T01:10:21.127Z,43.70
2023-02-22T01:11:24.882Z,48.03
2023-02-22T01:12:28.682Z,47.28
2023-02-22T01:13:33.970Z,45.93
2023-02-22T01:14:37.526Z,42.75
2023-02-22T01:15:43.137Z,43.45
2023-02-22T01:16:46.797Z,40.60
2023-02-22T01:17:51.692Z,44.80
2023-02-22T01:18:55.305Z,40.77
2023-02-22T01:19:59.067Z,40.10
2023-02-22T01:21:02.798Z,43.15
2023-02-22T01:22:06.458Z,46.00
2023-02-22T01:23:10.266Z,40.25
2023-02-22T01:24:13.967Z,45.03
2023-02-22T01:25:19.663Z,42.65
2023-02-22T01:26:23.270Z,40.63
2023-02-22T01:27:26.855Z,44.92
2023-02-22T01:28:30.657Z,40.95
2023-02-22T01:29:35.936Z,40.73
2023-02-22T01:30:39.663Z,42.45
2023-02-22T01:31:43.569Z,43.03
2023-02-22T01:32:47.370Z,46.95
2023-02-22T01:33:51.062Z,38.65
2023-02-22T01:34:55.214Z,41.33
2023-02-22T01:35:59.189Z,39.95
2023-02-22T01:37:02.938Z,33.75
2023-02-22T01:38:06.525Z,39.80
2023-02-22T01:39:10.177Z,37.80
2023-02-22T01:40:19.057Z,43.70
2023-02-22T01:41:22.938Z,39.20
2023-02-22T01:42:26.621Z,43.92
2023-02-22T01:43:31.678Z,41.47
2023-02-22T01:44:38.882Z,41.85
2023-02-22T01:46:00.439Z,36.53
2023-02-22T01:47:05.295Z,41.22
2023-02-22T01:48:13.513Z,39.78
2023-02-22T01:49:17.616Z,36.92
2023-02-22T01:50:21.289Z,44.63
2023-02-22T01:51:29.186Z,35.25
2023-02-22T01:52:33.002Z,36.27
2023-02-22T01:53:43.939Z,36.45
2023-02-22T01:54:52.143Z,38.95
2023-02-22T01:55:57.262Z,38.78
2023-02-22T01:57:05.351Z,41.30
2023-02-22T01:58:10.098Z,34.33
2023-02-22T01:59:14.864Z,36.33
2023-02-22T02:00:21.589Z,38.25
2023-02-22T02:01:27.098Z,35.97
2023-02-22T02:02:30.881Z,36.92
2023-02-22T02:03:39.121Z,33.37
2023-02-22T02:04:43.507Z,34.00
2023-02-22T02:05:47.583Z,34.90
2023-02-22T02:06:52.417Z,33.03
2023-02-22T02:07:56.299Z,35.40
2023-02-22T02:09:12.286Z,34.10
2023-02-22T11:31:58.054Z,24.80
2023-02-22T11:33:17.267Z,23.17
2023-02-22T11:34:30.655Z,27.02
2023-02-22T11:35:39.491Z,23.25
2023-02-22T11:36:44.273Z,27.23
2023-02-22T11:37:47.878Z,25.83
2023-02-22T11:38:56.432Z,26.98
2023-02-22T11:40:09.324Z,23.58
2023-02-22T11:41:18.259Z,23.00
2023-02-22T11:42:26.918Z,25.70
2023-02-22T11:43:30.608Z,25.35
2023-02-22T11:44:36.733Z,24.25
2023-02-22T11:45:53.033Z,25.08
2023-02-22T11:47:06.274Z,24.77
2023-02-22T11:48:19.783Z,24.97
2023-02-22T11:49:26.134Z,26.73
2023-02-22T11:50:34.048Z,25.95
2023-02-22T11:51:50.165Z,24.20
2023-02-22T11:53:14.692Z,26.13
2023-02-22T11:54:40.318Z,24.43
2023-02-22T11:55:53.632Z,26.85
2023-02-22T11:57:08.105Z,26.10
2023-02-22T11:58:27.642Z,26.50
2023-02-22T11:59:39.077Z,27.13
2023-02-22T12:00:53.663Z,28.43
2023-02-22T12:01:58.992Z,28.17
2023-02-22T12:03:23.629Z,29.77
2023-02-22T12:05:02.716Z,28.35
2023-02-22T12:06:18.822Z,27.50
2023-02-22T12:07:38.882Z,29.37
2023-02-22T12:08:55.133Z,25.23
2023-02-22T12:10:08.774Z,27.13
2023-02-22T12:11:19.626Z,25.30
2023-02-22T12:12:30.185Z,29.80
2023-02-22T12:13:48.798Z,27.00
2023-02-22T12:15:03.822Z,32.47
2023-02-22T12:16:20.382Z,26.98
2023-02-22T12:17:33.812Z,31.30
2023-02-22T12:18:45.053Z,35.38
2023-02-22T12:19:51.722Z,28.97
2023-02-22T12:20:59.391Z,31.27
2023-02-22T12:22:09.050Z,29.25
2023-02-22T12:23:19.808Z,34.00
2023-02-22T12:24:27.628Z,32.55
2023-02-22T12:25:36.154Z,30.63
2023-02-22T12:26:42.682Z,25.88
2023-02-22T12:27:49.680Z,27.80
2023-02-22T12:28:57.180Z,25.98
2023-02-22T12:30:05.756Z,29.45
2023-02-22T12:31:20.624Z,28.37
2023-02-22T12:32:33.503Z,26.30
2023-02-22T12:33:58.116Z,28.15
2023-02-22T12:35:09.964Z,31.73
2023-02-22T12:36:18.472Z,28.55
2023-02-22T12:37:28.277Z,31.67
2023-02-22T12:38:38.838Z,27.85
2023-02-22T12:39:54.062Z,29.67
2023-02-22T12:41:05.840Z,25.65
2023-02-22T12:42:17.754Z,29.98
2023-02-22T12:43:27.918Z,28.57
2023-02-22T12:44:36.166Z,28.58
2023-02-22T12:45:47.596Z,30.02
2023-02-22T12:46:53.200Z,28.23
2023-02-22T12:48:06.079Z,27.02
2023-02-22T12:49:17.341Z,26.47
2023-02-22T12:50:23.772Z,26.17
2023-02-22T12:51:33.183Z,27.33
2023-02-22T12:52:45.302Z,28.05
2023-02-22T12:53:56.519Z,25.23
2023-02-22T12:55:05.471Z,29.17
2023-02-22T12:56:21.633Z,27.02
2023-02-22T12:57:35.718Z,30.63
2023-02-22T12:58:45.942Z,26.50
2023-02-22T12:59:53.760Z,25.63
2023-02-22T13:01:05.891Z,30.37
2023-02-22T13:02:16.850Z,35.90
2023-02-22T13:03:35.735Z,26.67
2023-02-22T13:04:41.007Z,29.73
2023-02-22T13:05:50.310Z,27.30
2023-02-22T13:07:28.089Z,33.07
2023-02-22T13:08:38.584Z,22.65
2023-02-22T13:10:34.607Z,28.77
2023-02-22T13:11:44.395Z,24.92
2023-02-22T13:12:57.963Z,27.10
2023-02-22T13:14:17.656Z,30.40
2023-02-22T13:15:29.121Z,28.38
2023-02-22T13:16:42.267Z,29.23
2023-02-22T13:17:54.425Z,25.90
2023-02-22T13:19:04.729Z,26.15
2023-02-22T13:20:18.486Z,27.57
2023-02-22T13:21:30.770Z,26.92
2023-02-22T13:22:41.187Z,30.33
2023-02-22T13:23:54.809Z,27.25
2023-02-22T13:25:10.163Z,25.40
2023-02-22T13:26:19.652Z,26.53
2023-02-22T13:27:28.187Z,27.30
2023-02-22T13:28:36.710Z,30.60
2023-02-22T13:29:46.522Z,28.48
2023-02-22T13:31:02.703Z,27.88
2023-02-22T13:32:30.376Z,27.07
2023-02-22T13:33:53.012Z,27.73
2023-02-22T13:35:16.153Z,28.83
2023-02-22T13:36:36.659Z,26.25
2023-02-22T13:38:11.034Z,28.23
2023-02-22T13:40:03.441Z,26.90
2023-02-22T13:41:52.107Z,26.83
2023-02-22T13:43:09.106Z,28.77
2023-02-22T13:44:44.465Z,30.65
2023-02-22T13:46:29.857Z,28.75
2023-02-22T13:48:15.336Z,31.83
2023-02-22T13:49:42.038Z,30.15
2023-02-22T13:51:04.245Z,26.75
2023-02-22T13:52:13.060Z,28.27
2023-02-22T13:53:22.436Z,34.92
2023-02-22T13:54:39.559Z,31.47
2023-02-22T13:55:53.572Z,26.50
2023-02-22T13:56:58.565Z,30.90
2023-02-22T13:58:04.765Z,29.33
2023-02-22T13:59:08.543Z,29.08
2023-02-22T14:00:39.998Z,27.77
2023-02-22T14:01:46.335Z,29.40
2023-02-22T14:03:02.633Z,31.23
2023-02-22T14:04:33.515Z,28.73
2023-02-22T14:05:47.770Z,27.90
2023-02-22T14:06:53.508Z,29.63
2023-02-22T14:07:57.412Z,32.67
2023-02-22T14:09:02.299Z,37.25
2023-02-22T14:10:06.367Z,28.98
2023-02-22T14:11:51.090Z,35.45
2023-02-22T14:12:56.454Z,34.23
2023-02-22T14:14:17.050Z,29.13
2023-02-22T14:15:29.592Z,29.30
2023-02-22T14:16:37.448Z,28.85
2023-02-22T14:17:41.998Z,36.42
2023-02-22T14:18:47.709Z,32.57
2023-02-22T14:20:22.779Z,33.47
2023-02-22T14:21:26.572Z,36.22
2023-02-22T14:22:32.284Z,38.35
2023-02-22T14:23:37.838Z,33.30
2023-02-22T14:24:46.407Z,36.23
2023-02-22T14:25:50.825Z,32.97
2023-02-22T14:27:01.557Z,34.42
2023-02-22T14:28:07.307Z,33.40
2023-02-22T14:29:18.597Z,36.35
2023-02-22T14:30:29.423Z,34.37
2023-02-22T14:31:37.295Z,41.25
2023-02-22T14:32:43.746Z,36.33
2023-02-22T14:34:00.581Z,32.92
2023-02-22T14:35:26.607Z,37.45
2023-02-22T14:36:45.785Z,35.60
2023-02-22T14:37:55.977Z,37.42
2023-02-22T14:39:10.323Z,38.72
2023-02-22T14:40:22.700Z,37.45
2023-02-22T14:41:47.338Z,34.25
2023-02-22T14:42:59.626Z,35.43
2023-02-22T14:44:12.336Z,37.50
2023-02-22T14:45:23.908Z,37.97
2023-02-22T14:46:30.355Z,39.13
2023-02-22T14:47:45.404Z,37.35
2023-02-22T14:48:53.610Z,41.23
2023-02-22T14:50:04.589Z,39.63
2023-02-22T14:51:21.817Z,34.83
2023-02-22T14:52:29.758Z,43.30
2023-02-22T14:53:41.184Z,37.72
2023-02-22T14:54:58.974Z,40.77
2023-02-22T14:56:06.172Z,39.67
2023-02-22T14:57:20.068Z,38.15
2023-02-22T14:58:30.273Z,36.00
2023-02-22T14:59:36.026Z,44.13
2023-02-22T15:00:42.119Z,38.10
2023-02-22T15:01:53.240Z,41.15
2023-02-22T15:03:05.727Z,40.10
2023-02-22T15:04:19.854Z,42.30
2023-02-22T15:05:23.675Z,48.35
2023-02-22T15:06:29.072Z,40.57
2023-02-22T15:07:33.790Z,42.83
2023-02-22T15:08:39.120Z,42.40
2023-02-22T15:09:42.691Z,50.55
2023-02-22T15:10:47.575Z,50.35
2023-02-22T15:11:52.463Z,41.13
2023-02-22T15:13:01.781Z,44.15
2023-02-22T15:14:25.721Z,44.08
2023-02-22T15:15:32.473Z,43.00
2023-02-22T15:16:38.325Z,39.80
2023-02-22T15:17:42.502Z,38.53
2023-02-22T15:18:48.699Z,40.63
2023-02-22T15:19:54.049Z,40.08
2023-02-22T15:21:00.130Z,45.38
2023-02-22T15:22:04.379Z,44.38
2023-02-22T15:23:11.614Z,43.47
2023-02-22T15:24:25.375Z,44.08
2023-02-22T15:25:31.574Z,40.20
2023-02-22T15:26:37.516Z,44.63
2023-02-22T15:28:06.092Z,41.45
2023-02-22T15:29:13.895Z,52.53
2023-02-22T15:30:23.368Z,42.45
2023-02-22T15:31:31.009Z,47.13
2023-02-22T15:32:36.759Z,43.40
2023-02-22T15:33:40.667Z,40.30
2023-02-22T15:34:44.244Z,41.30
2023-02-22T15:35:55.746Z,37.97
2023-02-22T15:37:13.474Z,42.88
2023-02-22T15:38:22.666Z,39.92
2023-02-22T15:39:29.750Z,38.35
2023-02-22T15:40:33.994Z,40.80
2023-02-22T15:41:37.595Z,39.63
2023-02-22T15:42:45.888Z,42.92
2023-02-22T15:44:08.001Z,41.42
2023-02-22T15:45:19.341Z,41.72
2023-02-22T15:46:22.997Z,38.23
2023-02-22T15:47:28.915Z,41.60
2023-02-22T15:48:32.512Z,42.92
2023-02-22T15:49:36.112Z,40.20
2023-02-22T15:50:39.791Z,38.15
2023-02-22T15:51:44.641Z,43.70
2023-02-22T15:52:55.113Z,46.58
2023-02-22T15:54:03.569Z,39.35
2023-02-22T15:55:12.019Z,42.30
2023-02-22T15:56:18.760Z,38.60
2023-02-22T15:57:24.129Z,39.57
2023-02-22T15:58:29.186Z,39.33
2023-02-22T15:59:32.821Z,39.03
2023-02-22T16:00:38.327Z,36.97
2023-02-22T16:01:44.242Z,39.13
2023-02-22T16:02:48.876Z,38.97
2023-02-22T16:03:55.040Z,41.85
2023-02-22T16:05:04.352Z,37.17
2023-02-22T16:06:12.269Z,43.30
2023-02-22T16:07:18.056Z,42.78
2023-02-22T16:08:25.281Z,38.37
2023-02-22T16:09:29.007Z,36.10
2023-02-22T16:10:34.427Z,40.38
2023-02-22T16:11:39.572Z,39.60
2023-02-22T16:12:43.259Z,38.85
2023-02-22T16:13:53.571Z,38.93
2023-02-22T16:14:58.665Z,39.63
2023-02-22T16:16:03.796Z,38.10
2023-02-22T16:17:25.170Z,36.60
2023-02-22T16:18:31.013Z,33.50
2023-02-22T16:19:40.726Z,32.40
2023-02-22T16:20:46.055Z,36.08
2023-02-22T16:21:53.820Z,33.97
2023-02-22T16:22:58.861Z,33.15
2023-02-22T16:24:15.111Z,40.85
2023-02-22T16:25:34.208Z,39.43
2023-02-22T16:26:37.790Z,38.72
2023-02-22T16:27:43.805Z,41.38
2023-02-22T16:28:51.958Z,40.75
2023-02-22T16:30:23.260Z,41.88
2023-02-22T16:31:29.766Z,38.57
2023-02-22T16:32:33.561Z,44.60
2023-02-22T16:33:39.974Z,43.65
2023-02-22T16:34:44.738Z,37.40
2023-02-22T16:35:48.352Z,45.55
2023-02-22T16:36:52.310Z,39.40
2023-02-22T16:38:01.426Z,41.88
2023-02-22T16:39:07.297Z,38.75
2023-02-22T16:40:13.850Z,44.40
2023-02-22T16:41:19.639Z,36.95
2023-02-22T16:42:23.448Z,41.47
2023-02-22T16:43:29.038Z,39.83
2023-02-22T16:44:34.633Z,39.80
2023-02-22T16:45:39.252Z,40.60
2023-02-22T16:46:44.075Z,39.50
2023-02-22T16:47:47.728Z,39.83
2023-02-22T16:48:51.321Z,40.60
2023-02-22T16:49:54.976Z,44.70
2023-02-22T16:51:00.586Z,40.20
2023-02-22T16:52:08.314Z,41.05
2023-02-22T16:53:12.081Z,43.83
2023-02-22T16:54:20.775Z,43.50
2023-02-22T16:55:24.353Z,46.83
2023-02-22T16:56:31.323Z,38.05
2023-02-22T16:57:35.146Z,39.20
2023-02-22T16:58:41.797Z,42.00
2023-02-22T16:59:45.686Z,37.55
2023-02-22T17:00:49.537Z,42.05
2023-02-22T17:01:53.178Z,37.38
2023-02-22T17:02:56.836Z,38.72
2023-02-22T17:04:00.379Z,36.30
2023-02-22T17:05:04.044Z,41.63
2023-02-22T17:06:08.313Z,39.47
2023-02-22T17:07:12.096Z,40.50
2023-02-22T17:08:15.798Z,39.22
2023-02-22T17:09:19.560Z,37.97
2023-02-22T17:10:23.281Z,38.45
2023-02-22T17:11:31.566Z,36.65
2023-02-22T17:12:35.271Z,38.80
2023-02-22T17:13:43.319Z,40.72
2023-02-22T17:14:47.786Z,40.67
2023-02-22T17:15:51.967Z,42.00
2023-02-22T17:16:55.828Z,41.67
2023-02-22T17:18:00.408Z,40.58
2023-02-22T17:19:04.181Z,42.83
2023-02-22T17:20:08.644Z,41.37
2023-02-22T17:21:13.067Z,43.08
2023-02-22T17:22:20.885Z,40.25
2023-02-22T17:23:25.157Z,42.33
2023-02-22T17:24:28.890Z,42.88
2023-02-22T17:25:37.371Z,44.20
2023-02-22T17:26:42.830Z,42.38
2023-02-22T17:27:46.703Z,35.33
2023-02-22T17:28:50.413Z,40.97
2023-02-22T17:29:54.285Z,38.17
2023-02-22T17:30:59.573Z,37.30
2023-02-22T17:32:04.898Z,42.17
2023-02-22T17:33:10.067Z,41.65
2023-02-22T17:34:13.725Z,38.75
2023-02-22T17:35:19.037Z,41.45
2023-02-22T17:36:22.704Z,41.73
2023-02-22T17:37:26.427Z,40.45
2023-02-22T17:38:30.580Z,39.50
2023-02-22T17:39:34.327Z,36.78
2023-02-22T17:40:39.903Z,38.58
2023-02-22T17:41:45.533Z,38.07
2023-02-22T17:42:49.336Z,36.88
2023-02-22T17:43:53.151Z,37.67
2023-02-22T17:44:56.734Z,36.63
2023-02-22T17:46:00.611Z,37.63
2023-02-22T17:47:04.478Z,44.77
2023-02-22T17:48:09.100Z,40.05
2023-02-22T17:49:12.794Z,37.35
2023-02-22T17:50:16.522Z,39.10
2023-02-22T17:51:20.620Z,40.67
2023-02-22T17:52:24.462Z,37.10
2023-02-22T17:53:28.061Z,36.95
2023-02-22T17:54:31.720Z,42.95
2023-02-22T17:55:36.960Z,36.70
2023-02-22T17:56:40.751Z,39.90
2023-02-22T17:57:46.278Z,40.67
2023-02-22T17:58:51.929Z,38.35
2023-02-22T17:59:55.685Z,38.05
2023-02-22T18:00:59.447Z,34.72
2023-02-22T18:02:03.331Z,38.92
2023-02-22T18:03:08.887Z,38.13
2023-02-22T18:04:12.666Z,35.55
2023-02-22T18:05:40.937Z,42.38
2023-02-22T18:06:44.952Z,40.50
2023-02-22T18:07:48.614Z,39.70
2023-02-22T18:08:54.125Z,37.07
2023-02-22T18:09:59.548Z,41.00
2023-02-22T18:11:27.085Z,40.85
2023-02-22T18:12:30.788Z,39.40
2023-02-22T18:13:36.117Z,38.40
2023-02-22T18:14:54.162Z,40.13
2023-02-22T18:15:59.416Z,41.22
2023-02-22T18:17:03.057Z,36.33
2023-02-22T18:18:09.827Z,37.08
2023-02-22T18:19:17.162Z,38.67
2023-02-22T18:20:20.958Z,40.23
2023-02-22T18:21:25.309Z,40.85
2023-02-22T18:22:28.988Z,39.30
2023-02-22T18:23:41.094Z,38.92
2023-02-22T18:24:44.754Z,41.20
2023-02-22T18:26:03.890Z,38.10
2023-02-22T18:27:13.126Z,40.58
2023-02-22T18:28:17.439Z,39.78
2023-02-22T18:29:22.699Z,38.25
2023-02-22T18:30:50.901Z,41.20
2023-02-22T18:31:54.600Z,41.43
2023-02-22T18:32:58.289Z,41.03
2023-02-22T18:34:01.891Z,42.25
2023-02-22T18:35:06.443Z,41.17
2023-02-22T18:36:10.631Z,39.25
2023-02-22T18:37:14.249Z,38.70
2023-02-22T18:38:17.887Z,42.28
2023-02-22T18:39:21.630Z,38.70
2023-02-22T18:40:25.192Z,41.28
2023-02-22T18:41:28.850Z,39.38
2023-02-22T18:42:32.389Z,42.40
2023-02-22T18:43:35.986Z,43.30
2023-02-22T18:44:41.420Z,42.25
2023-02-22T18:45:45.110Z,43.33
2023-02-22T18:46:48.902Z,44.30
2023-02-22T18:47:52.696Z,39.13
2023-02-22T18:48:57.295Z,40.78
2023-02-22T18:50:00.876Z,42.78
2023-02-22T18:51:05.986Z,41.00
2023-02-22T18:52:09.564Z,37.88
2023-02-22T18:53:13.216Z,40.20
2023-02-22T18:54:16.871Z,43.58
2023-02-22T18:55:21.397Z,43.00
2023-02-22T18:56:25.040Z,45.03
2023-02-22T18:57:28.724Z,38.50
2023-02-22T18:58:32.504Z,41.97
2023-02-22T18:59:36.075Z,41.28
2023-02-22T19:00:41.341Z,40.05
2023-02-22T19:01:44.986Z,41.03
2023-02-22T19:02:48.590Z,43.15
2023-02-22T19:03:52.666Z,42.10
2023-02-22T19:04:56.418Z,42.55
2023-02-22T19:06:02.662Z,41.50
2023-02-22T19:07:06.275Z,43.97
2023-02-22T19:08:09.885Z,40.45
2023-02-22T19:09:13.474Z,43.20
2023-02-22T19:10:17.322Z,45.90
2023-02-22T19:11:22.829Z,46.08
2023-02-22T19:12:26.438Z,42.45
2023-02-22T19:13:30.023Z,42.10
2023-02-22T19:14:33.553Z,43.37
2023-02-22T19:15:37.400Z,42.08
2023-02-22T19:16:42.627Z,42.45
2023-02-22T19:17:46.417Z,43.03
2023-02-22T19:18:51.103Z,41.55
2023-02-22T19:19:54.810Z,40.83
2023-02-22T19:20:58.602Z,40.80
2023-02-22T19:22:02.218Z,41.90
2023-02-22T19:23:05.813Z,43.67
2023-02-22T19:24:09.587Z,40.05
2023-02-22T19:25:13.251Z,40.87
2023-02-22T19:26:18.832Z,43.42
2023-02-22T19:27:22.945Z,43.05
2023-02-22T19:28:26.536Z,40.55
2023-02-22T19:29:30.237Z,39.58
2023-02-22T19:30:33.884Z,41.33
2023-02-22T19:31:39.442Z,38.10
2023-02-22T19:32:45.551Z,39.63
2023-02-22T19:33:50.089Z,43.42
2023-02-22T19:34:53.816Z,40.65
2023-02-22T19:36:01.417Z,44.37
2023-02-22T19:37:05.462Z,44.63
2023-02-22T19:38:09.096Z,40.08
2023-02-22T19:39:12.937Z,42.28
2023-02-22T19:40:16.606Z,45.40
2023-02-22T19:41:21.985Z,42.50
2023-02-22T19:42:25.732Z,40.35
2023-02-22T19:43:29.377Z,39.15
2023-02-22T19:44:33.239Z,43.35
2023-02-22T19:45:40.419Z,40.85
2023-02-22T19:46:44.273Z,41.57
2023-02-22T19:47:53.701Z,42.13
2023-02-22T19:48:57.523Z,40.58
2023-02-22T19:50:01.104Z,41.30
2023-02-22T19:51:07.333Z,41.30
2023-02-22T19:52:10.935Z,39.70
2023-02-22T19:53:14.540Z,38.17
2023-02-22T19:54:18.880Z,44.92
2023-02-22T19:55:22.522Z,40.78
2023-02-22T19:56:26.874Z,40.30
2023-02-22T19:57:30.656Z,40.37
2023-02-22T19:58:34.288Z,43.50
2023-02-22T19:59:38.024Z,42.97
2023-02-22T20:02:16.007Z,43.15
2023-02-22T20:03:21.393Z,44.00
2023-02-22T20:04:25.310Z,42.75
2023-02-22T20:05:28.981Z,43.20
2023-02-22T20:06:34.371Z,43.55
2023-02-22T20:07:38.584Z,45.55
2023-02-22T20:08:42.407Z,40.90
2023-02-22T20:09:46.070Z,41.72
2023-02-22T20:10:49.690Z,41.53
2023-02-22T20:11:53.314Z,40.40
2023-02-22T20:12:57.062Z,42.22
2023-02-22T20:14:01.134Z,40.03
2023-02-22T20:15:04.993Z,44.00
2023-02-22T20:16:09.114Z,40.35
2023-02-22T20:17:12.736Z,40.03
2023-02-22T20:18:16.389Z,39.28
2023-02-22T20:19:21.807Z,39.27
2023-02-22T20:20:25.399Z,39.50
2023-02-22T20:21:31.308Z,39.95
2023-02-22T20:22:35.044Z,41.17
2023-02-22T20:23:39.159Z,40.47
2023-02-22T20:24:42.947Z,42.90
2023-02-22T20:25:53.515Z,42.38
2023-02-22T20:26:57.824Z,40.72
2023-02-22T20:28:01.472Z,38.88
2023-02-22T20:29:06.332Z,43.75
2023-02-22T20:30:11.142Z,40.83
2023-02-22T20:31:16.421Z,43.60
2023-02-22T20:32:20.521Z,39.85
2023-02-22T20:33:24.384Z,40.58
2023-02-22T20:34:30.509Z,37.53
2023-02-22T20:35:34.727Z,42.57
2023-02-22T20:36:40.048Z,39.17
2023-02-22T20:37:43.855Z,38.83
2023-02-22T20:38:47.445Z,39.03
2023-02-22T20:39:52.124Z,40.17
2023-02-22T20:40:55.714Z,41.47
2023-02-22T20:41:59.423Z,40.15
2023-02-22T20:43:03.025Z,43.33
2023-02-22T20:44:06.642Z,38.78
2023-02-22T20:45:12.019Z,41.63
2023-02-22T20:46:15.765Z,40.20
2023-02-22T20:47:19.367Z,41.80
2023-02-22T20:48:22.952Z,40.05
2023-02-22T20:49:28.168Z,40.60
2023-02-22T20:50:32.204Z,41.17
2023-02-22T20:51:36.525Z,42.70
2023-02-22T20:52:40.154Z,43.08
2023-02-22T20:53:44.136Z,44.50
2023-02-22T20:54:47.732Z,43.58
2023-02-22T20:55:52.208Z,38.33
2023-02-22T20:56:55.831Z,41.13
2023-02-22T20:57:59.493Z,40.53
2023-02-22T20:59:04.599Z,42.78
2023-02-22T21:00:08.887Z,39.33
2023-02-22T21:01:14.239Z,39.53
2023-02-22T21:02:17.875Z,40.30
2023-02-22T21:03:22.621Z,40.38
2023-02-22T21:04:26.279Z,40.38
2023-02-22T21:05:33.399Z,41.40
2023-02-22T21:06:38.563Z,39.65
2023-02-22T21:07:42.314Z,44.23
2023-02-22T21:08:49.636Z,41.67
2023-02-22T21:09:53.241Z,41.22
2023-02-22T21:10:56.860Z,42.22
2023-02-22T21:12:00.584Z,40.85
2023-02-22T21:13:08.021Z,39.03
2023-02-22T21:14:17.549Z,39.67
2023-02-22T21:15:21.126Z,41.00
2023-02-22T21:16:26.852Z,40.67
2023-02-22T21:17:30.487Z,40.65
2023-02-22T21:18:34.215Z,40.17
2023-02-22T21:19:37.778Z,41.38
2023-02-22T21:20:43.233Z,43.33
2023-02-22T21:21:46.874Z,37.67
2023-02-22T21:22:50.508Z,44.30
2023-02-22T21:23:55.838Z,38.80
2023-02-22T21:24:59.434Z,39.53
2023-02-22T21:26:03.147Z,39.40
2023-02-22T21:27:06.844Z,42.05
2023-02-22T21:28:10.557Z,37.28
2023-02-22T21:29:14.238Z,42.93
2023-02-22T21:30:18.322Z,42.90
2023-02-22T21:31:23.838Z,41.63
2023-02-22T21:32:27.844Z,39.72
2023-02-22T21:33:31.470Z,43.13
2023-02-22T21:34:35.252Z,39.23
2023-02-22T21:35:38.919Z,41.55
2023-02-22T21:36:44.759Z,40.72
2023-02-22T21:37:48.363Z,45.25
2023-02-22T21:38:55.165Z,39.85
2023-02-22T21:39:58.842Z,40.07
2023-02-22T21:41:02.441Z,42.38
2023-02-22T21:42:06.236Z,40.42
2023-02-22T21:43:09.818Z,42.80
2023-02-22T21:44:14.308Z,42.72
2023-02-22T21:45:18.633Z,42.97
2023-02-22T21:46:23.023Z,42.70
2023-02-22T21:47:26.896Z,44.72
2023-02-22T21:48:30.560Z,41.67
2023-02-22T21:49:34.138Z,43.97
2023-02-22T21:50:37.785Z,42.50
2023-02-22T21:51:43.416Z,40.63
2023-02-22T21:52:47.994Z,42.28
2023-02-22T21:53:54.010Z,41.95
2023-02-22T21:54:57.594Z,45.97
2023-02-22T21:56:05.169Z,40.17
2023-02-22T21:57:08.874Z,41.95
2023-02-22T21:58:12.557Z,41.63
2023-02-22T21:59:18.133Z,42.80
2023-02-22T22:00:22.006Z,39.33
2023-02-22T22:01:25.844Z,43.53
2023-02-22T22:02:29.773Z,45.45
2023-02-22T22:03:33.852Z,44.60
2023-02-22T22:04:37.509Z,43.42
2023-02-22T22:05:41.285Z,45.90
2023-02-22T22:06:55.856Z,41.57
2023-02-22T22:07:59.532Z,44.95
2023-02-22T22:09:03.442Z,42.58
2023-02-22T22:10:07.491Z,42.13
2023-02-22T22:11:12.844Z,44.72
2023-02-22T22:12:16.450Z,42.30
2023-02-22T22:13:20.152Z,41.00
2023-02-22T22:14:25.614Z,45.97
2023-02-22T22:15:29.279Z,45.40
2023-02-22T22:16:32.899Z,43.58
2023-02-22T22:17:36.509Z,41.33
2023-02-22T22:18:42.398Z,43.03
2023-02-22T22:19:45.985Z,44.95
2023-02-22T22:20:49.562Z,43.42
2023-02-22T22:21:54.862Z,44.58
2023-02-22T22:22:58.499Z,43.20
2023-02-22T22:24:02.194Z,44.13
2023-02-22T22:25:06.452Z,43.28
2023-02-22T22:26:11.352Z,44.00
2023-02-22T22:27:14.990Z,40.92
2023-02-22T22:28:18.641Z,40.07
2023-02-22T22:29:23.109Z,43.65
2023-02-22T22:30:26.725Z,45.67
2023-02-22T22:31:30.813Z,40.50
2023-02-22T22:32:34.549Z,41.88
2023-02-22T22:33:41.150Z,41.53
2023-02-22T22:34:44.832Z,42.30
2023-02-22T22:35:48.418Z,45.38
2023-02-22T22:36:53.691Z,40.95
2023-02-22T22:37:57.359Z,40.53
2023-02-22T22:39:01.022Z,44.63
2023-02-22T22:40:04.869Z,43.63
2023-02-22T22:41:09.677Z,45.65
2023-02-22T22:42:13.402Z,38.88
2023-02-22T22:43:17.055Z,41.92
2023-02-22T22:44:20.672Z,40.90
2023-02-22T22:45:24.352Z,38.13
2023-02-22T22:46:28.002Z,41.08
2023-02-22T22:47:31.745Z,40.50
2023-02-22T22:48:37.135Z,42.30
2023-02-22T22:49:40.802Z,44.87
2023-02-22T22:50:44.410Z,46.70
2023-02-22T22:51:48.043Z,42.80
2023-02-22T22:52:53.720Z,41.72
2023-02-22T22:53:59.084Z,40.53
2023-02-22T22:55:02.692Z,36.77
2023-02-22T22:56:09.163Z,42.78
2023-02-22T22:57:13.045Z,41.45
2023-02-22T22:58:16.708Z,42.45
2023-02-22T22:59:20.344Z,39.72
2023-02-22T23:00:24.023Z,45.30
2023-02-22T23:01:29.721Z,39.58
2023-02-22T23:02:33.269Z,37.03
2023-02-22T23:03:37.023Z,33.67
2023-02-22T23:04:40.745Z,40.20
2023-02-22T23:05:44.476Z,37.90
2023-02-22T23:06:49.774Z,38.20
2023-02-22T23:07:55.961Z,39.42
2023-02-22T23:09:01.251Z,38.40
2023-02-22T23:10:05.161Z,38.63
2023-02-22T23:11:09.145Z,38.03
2023-02-22T23:12:12.872Z,38.15
2023-02-22T23:13:16.444Z,37.83
2023-02-22T23:14:21.974Z,38.33
2023-02-22T23:15:26.398Z,38.40
2023-02-22T23:16:30.021Z,38.10
2023-02-22T23:17:33.695Z,38.08
2023-02-22T23:18:37.301Z,37.22
2023-02-22T23:19:40.929Z,37.20
2023-02-22T23:20:44.574Z,40.08
2023-02-22T23:21:49.650Z,36.03
2023-02-22T23:22:55.804Z,38.10
2023-02-22T23:23:59.446Z,37.63
2023-02-22T23:25:03.134Z,36.40
2023-02-22T23:26:08.783Z,36.03
2023-02-22T23:27:12.508Z,38.63
2023-02-22T23:28:16.300Z,41.05
2023-02-22T23:29:23.346Z,37.63
2023-02-22T23:30:27.046Z,40.83
2023-02-22T23:31:30.731Z,38.95
2023-02-22T23:32:34.341Z,38.70
2023-02-22T23:33:38.085Z,38.63
2023-02-22T23:34:41.805Z,39.70
2023-02-22T23:35:49.486Z,41.55
2023-02-22T23:36:53.302Z,43.60
2023-02-22T23:37:59.031Z,40.33
2023-02-22T23:39:02.652Z,39.42
2023-02-22T23:40:08.075Z,39.33
2023-02-22T23:41:13.888Z,39.55
2023-02-22T23:42:17.519Z,41.55
2023-02-22T23:43:21.268Z,42.33
2023-02-22T23:44:24.884Z,39.75
2023-02-22T23:45:28.510Z,39.17
2023-02-22T23:46:32.295Z,40.60
2023-02-22T23:47:35.870Z,38.15